createdAt,value
2019-01-25T00:01:09.454Z,30.72
2019-01-25T00:03:38.247Z,32.70
2019-01-25T00:06:06.440Z,31.17
2019-01-25T00:08:34.660Z,30.40
2019-01-25T00:11:02.855Z,31.48
2019-01-25T00:13:31.060Z,30.25
2019-01-25T00:15:59.260Z,30.48
2019-01-25T00:18:27.485Z,30.68
2019-01-25T00:20:56.003Z,32.15
2019-01-25T00:23:24.267Z,31.27
2019-01-25T00:25:52.474Z,30.35
2019-01-25T00:28:20.674Z,31.85
2019-01-25T00:30:48.898Z,29.80
2019-01-25T00:33:17.112Z,30.05
2019-01-25T00:35:45.324Z,30.37
2019-01-25T00:38:13.537Z,29.20
2019-01-25T00:40:42.065Z,31.90
2019-01-25T00:43:10.421Z,32.03
2019-01-25T00:45:38.971Z,29.42
2019-01-25T00:48:07.253Z,27.82
2019-01-25T00:50:35.466Z,28.47
2019-01-25T00:53:04.626Z,28.75
2019-01-25T00:55:32.863Z,30.92
2019-01-25T00:58:01.066Z,28.90
2019-01-25T01:00:29.337Z,29.35
2019-01-25T01:02:57.554Z,28.75
2019-01-25T01:05:25.762Z,29.00
2019-01-25T01:07:53.964Z,28.00
2019-01-25T01:10:22.187Z,27.73
2019-01-25T01:12:50.827Z,30.10
2019-01-25T01:15:19.436Z,27.80
2019-01-25T01:17:47.647Z,30.12
2019-01-25T01:20:18.451Z,28.30
2019-01-25T01:22:46.655Z,29.42
2019-01-25T01:25:14.901Z,29.30
2019-01-25T01:27:43.142Z,30.27
2019-01-25T01:30:14.548Z,30.05
2019-01-25T01:32:42.767Z,31.35
2019-01-25T01:35:10.967Z,30.08
2019-01-25T01:37:39.179Z,32.15
2019-01-25T01:40:13.321Z,31.45
2019-01-25T01:42:41.546Z,31.07
2019-01-25T01:45:09.747Z,29.15
2019-01-25T01:47:37.962Z,31.15
2019-01-25T01:50:09.470Z,31.20
2019-01-25T01:52:37.684Z,32.05
2019-01-25T01:55:06.552Z,31.30
2019-01-25T01:57:34.777Z,31.77
2019-01-25T02:00:03.287Z,30.10
2019-01-25T02:02:31.471Z,32.40
2019-01-25T02:04:59.679Z,32.75
2019-01-25T02:07:27.892Z,34.30
2019-01-25T02:09:56.101Z,33.42
2019-01-25T02:12:24.324Z,32.15
2019-01-25T02:14:52.523Z,36.08
2019-01-25T02:17:20.735Z,34.73
2019-01-25T02:19:48.935Z,34.20
2019-01-25T02:22:17.160Z,34.18
2019-01-25T02:24:45.367Z,34.83
2019-01-25T02:27:13.590Z,36.73
2019-01-25T02:29:41.783Z,35.08
2019-01-25T02:32:09.983Z,35.73
2019-01-25T02:34:38.208Z,36.85
2019-01-25T02:37:06.404Z,37.88
2019-01-25T02:39:34.622Z,38.15
2019-01-25T02:42:02.825Z,37.25
2019-01-25T02:44:31.045Z,37.08
2019-01-25T02:46:59.250Z,34.55
2019-01-25T02:49:27.493Z,36.58
2019-01-25T02:51:55.665Z,36.80
2019-01-25T02:54:23.885Z,37.98
2019-01-25T02:56:52.091Z,37.20
2019-01-25T02:59:20.303Z,37.20
2019-01-25T03:01:48.518Z,34.53
2019-01-25T03:04:16.795Z,34.67
2019-01-25T03:06:44.999Z,34.60
2019-01-25T03:09:13.216Z,36.88
2019-01-25T03:11:41.423Z,34.70
2019-01-25T03:14:09.637Z,38.13
2019-01-25T03:16:37.835Z,36.85
2019-01-25T03:19:06.061Z,34.13
2019-01-25T03:21:34.261Z,35.52
2019-01-25T03:24:02.482Z,37.58
2019-01-25T03:26:30.721Z,36.88
2019-01-25T03:28:58.947Z,36.65
2019-01-25T03:31:27.155Z,36.93
2019-01-25T03:33:55.387Z,34.15
2019-01-25T03:36:23.640Z,36.33
2019-01-25T03:38:51.898Z,36.68
2019-01-25T03:41:20.114Z,37.23
2019-01-25T03:43:48.318Z,37.03
2019-01-25T03:46:16.549Z,37.20
2019-01-25T03:48:44.749Z,38.48
2019-01-25T03:51:12.964Z,38.98
2019-01-25T03:53:41.945Z,38.88
2019-01-25T03:56:10.167Z,37.00
2019-01-25T03:58:38.367Z,38.23
2019-01-25T04:01:06.579Z,37.15
2019-01-25T04:03:34.788Z,36.25
2019-01-25T04:06:03.085Z,36.15
2019-01-25T04:08:31.289Z,36.80
2019-01-25T04:11:03.641Z,37.95
2019-01-25T04:13:29.440Z,36.77
2019-01-25T04:15:57.660Z,38.58
2019-01-25T04:18:25.866Z,37.28
2019-01-25T04:20:54.079Z,36.03
2019-01-25T04:23:22.301Z,35.10
2019-01-25T04:25:50.508Z,38.15
2019-01-25T04:28:18.727Z,36.68
2019-01-25T04:30:46.950Z,38.63
2019-01-25T04:33:15.151Z,38.65
2019-01-25T04:35:43.355Z,39.98
2019-01-25T04:38:11.580Z,38.98
2019-01-25T04:40:39.792Z,38.13
2019-01-25T04:43:08.018Z,37.13
2019-01-25T04:45:36.227Z,38.65
2019-01-25T04:48:04.436Z,37.98
2019-01-25T04:50:32.636Z,39.58
2019-01-25T04:53:00.857Z,39.18
2019-01-25T04:55:30.817Z,36.55
2019-01-25T04:58:13.236Z,38.08
2019-01-25T05:00:41.443Z,38.25
2019-01-25T05:03:09.668Z,37.58
2019-01-25T05:05:37.870Z,36.08
2019-01-25T05:08:19.303Z,36.68
2019-01-25T05:10:47.507Z,37.30
2019-01-25T05:13:15.740Z,39.45
2019-01-25T05:15:43.937Z,37.70
2019-01-25T05:18:12.155Z,40.25
2019-01-25T05:20:40.359Z,36.28
2019-01-25T05:23:09.106Z,39.23
2019-01-25T05:25:37.304Z,38.70
2019-01-25T05:28:13.889Z,39.50
2019-01-25T05:30:50.524Z,38.90
2019-01-25T05:33:18.736Z,39.40
2019-01-25T05:35:46.944Z,37.67
2019-01-25T05:38:15.170Z,40.70
2019-01-25T05:40:43.367Z,41.92
2019-01-25T05:43:11.602Z,40.63
2019-01-25T05:45:45.969Z,43.20
2019-01-25T05:48:14.215Z,41.37
2019-01-25T05:50:42.434Z,39.40
2019-01-25T05:53:10.656Z,40.50
2019-01-25T05:55:38.867Z,40.58
2019-01-25T05:58:08.516Z,40.25
2019-01-25T06:00:38.379Z,41.30
2019-01-25T06:03:11.658Z,41.50
2019-01-25T06:05:39.878Z,40.75
2019-01-25T06:08:31.698Z,40.25
2019-01-25T06:11:05.522Z,40.83
2019-01-25T06:13:33.730Z,39.03
2019-01-25T06:16:01.953Z,37.55
2019-01-25T06:18:30.164Z,41.42
2019-01-25T06:20:58.848Z,41.40
2019-01-25T06:23:27.071Z,43.55
2019-01-25T06:25:57.033Z,41.63
2019-01-25T06:28:25.314Z,42.73
2019-01-25T06:30:53.803Z,39.60
2019-01-25T06:33:22.055Z,39.00
2019-01-25T06:35:50.304Z,40.25
2019-01-25T06:38:18.514Z,38.50
2019-01-25T06:40:46.735Z,38.85
2019-01-25T06:43:14.935Z,37.08
2019-01-25T06:45:43.224Z,40.10
2019-01-25T06:48:11.434Z,37.95
2019-01-25T06:50:39.653Z,37.48
2019-01-25T06:53:07.856Z,36.55
2019-01-25T06:55:36.068Z,38.60
2019-01-25T06:58:11.723Z,39.78
2019-01-25T07:00:44.251Z,39.58
2019-01-25T07:03:12.529Z,38.75
2019-01-25T07:05:40.751Z,37.95
2019-01-25T07:08:10.591Z,39.50
2019-01-25T07:10:38.807Z,39.03
2019-01-25T07:13:07.007Z,39.13
2019-01-25T07:15:35.907Z,39.13
2019-01-25T07:18:04.117Z,38.78
2019-01-25T07:20:32.711Z,39.45
2019-01-25T07:23:01.787Z,39.80
2019-01-25T07:25:30.003Z,38.70
2019-01-25T07:27:58.206Z,37.35
2019-01-25T07:30:26.413Z,40.45
2019-01-25T07:32:54.635Z,37.33
2019-01-25T07:35:22.832Z,39.00
2019-01-25T07:37:51.771Z,37.98
2019-01-25T07:40:20.016Z,38.95
2019-01-25T07:42:48.574Z,39.30
2019-01-25T07:45:16.821Z,39.15
2019-01-25T07:47:45.043Z,38.88
2019-01-25T07:50:13.370Z,37.35
2019-01-25T07:52:41.595Z,38.02
2019-01-25T07:55:15.317Z,38.23
2019-01-25T07:57:43.534Z,38.08
2019-01-25T08:00:16.342Z,40.03
2019-01-25T08:02:44.722Z,39.65
2019-01-25T08:05:13.091Z,38.13
2019-01-25T08:07:41.332Z,39.60
2019-01-25T08:10:15.636Z,35.88
2019-01-25T08:12:43.913Z,39.40
2019-01-25T08:15:18.356Z,37.33
2019-01-25T08:17:46.566Z,37.42
2019-01-25T08:20:14.760Z,37.08
2019-01-25T08:22:43.090Z,36.65
2019-01-25T08:25:11.405Z,36.83
2019-01-25T08:27:39.673Z,38.30
2019-01-25T08:30:19.312Z,36.00
2019-01-25T08:32:47.570Z,37.10
2019-01-25T08:35:15.971Z,38.65
2019-01-25T08:37:44.244Z,35.52
2019-01-25T08:40:16.947Z,37.03
2019-01-25T08:42:45.316Z,37.20
2019-01-25T08:45:16.016Z,33.80
2019-01-25T08:50:27.817Z,36.05
2019-01-25T08:52:56.227Z,35.10
2019-01-25T08:55:24.543Z,36.60
2019-01-25T08:57:52.935Z,35.88
2019-01-25T09:00:22.965Z,35.43
2019-01-25T09:02:51.255Z,34.80
2019-01-25T09:05:19.532Z,35.55
2019-01-25T09:07:47.735Z,36.68
2019-01-25T09:10:21.200Z,35.45
2019-01-25T09:12:49.404Z,35.25
2019-01-25T09:15:22.905Z,32.93
2019-01-25T09:17:51.098Z,33.67
2019-01-25T09:20:21.046Z,34.23
2019-01-25T09:22:49.249Z,33.80
2019-01-25T09:25:17.545Z,33.75
2019-01-25T09:27:46.390Z,34.98
2019-01-25T09:30:16.955Z,32.50
2019-01-25T09:32:45.138Z,33.58
2019-01-25T09:35:13.428Z,34.50
2019-01-25T09:37:41.621Z,32.65
2019-01-25T09:40:13.134Z,33.83
2019-01-25T09:42:41.332Z,32.98
2019-01-25T09:45:11.483Z,34.05
2019-01-25T09:47:39.679Z,33.53
2019-01-25T09:50:13.487Z,29.92
2019-01-25T09:52:41.683Z,31.82
2019-01-25T09:55:12.744Z,31.48
2019-01-25T09:57:40.957Z,32.85
2019-01-25T10:00:21.066Z,31.68
2019-01-25T10:02:49.266Z,33.50
2019-01-25T10:05:17.476Z,32.95
2019-01-25T10:07:45.678Z,30.72
2019-01-25T10:10:14.159Z,32.42
2019-01-25T10:12:43.544Z,35.25
2019-01-25T10:15:17.819Z,29.95
2019-01-25T10:17:46.023Z,33.45
2019-01-25T10:20:14.245Z,32.05
2019-01-25T10:22:42.443Z,32.67
2019-01-25T10:25:10.904Z,30.82
2019-01-25T10:27:39.671Z,32.13
2019-01-25T10:30:22.553Z,31.90
2019-01-25T10:32:50.763Z,33.85
2019-01-25T10:35:18.968Z,31.95
2019-01-25T10:37:47.176Z,34.78
2019-01-25T10:40:17.315Z,31.97
2019-01-25T10:42:52.693Z,33.33
2019-01-25T10:45:27.024Z,31.73
2019-01-25T10:47:55.233Z,31.77
2019-01-25T10:50:23.442Z,33.78
2019-01-25T10:52:51.651Z,32.73
2019-01-25T10:55:19.922Z,32.17
2019-01-25T10:57:48.137Z,32.13
2019-01-25T11:00:20.579Z,34.73
2019-01-25T11:02:48.780Z,33.63
2019-01-25T11:05:19.444Z,32.88
2019-01-25T11:07:47.705Z,30.90
2019-01-25T11:10:15.964Z,31.15
2019-01-25T11:12:44.172Z,32.55
2019-01-25T11:15:15.511Z,32.60
2019-01-25T11:17:43.715Z,33.00
2019-01-25T11:20:20.259Z,33.05
2019-01-25T11:22:48.478Z,33.90
2019-01-25T11:25:19.519Z,32.10
2019-01-25T11:27:47.715Z,30.15
2019-01-25T11:30:16.869Z,32.20
2019-01-25T11:32:45.088Z,32.33
2019-01-25T11:35:13.294Z,31.35
2019-01-25T11:37:42.075Z,31.10
2019-01-25T11:40:19.513Z,32.48
2019-01-25T11:42:47.721Z,31.12
2019-01-25T11:45:15.943Z,31.68
2019-01-25T11:47:44.144Z,33.40
2019-01-25T11:50:15.068Z,31.62
2019-01-25T11:52:43.282Z,32.13
2019-01-25T11:55:12.332Z,31.35
2019-01-25T11:57:40.559Z,31.87
2019-01-25T12:00:13.529Z,31.95
2019-01-25T12:02:41.755Z,33.88
2019-01-25T12:05:12.191Z,33.00
2019-01-25T12:07:59.832Z,31.48
2019-01-25T12:10:32.139Z,31.42
2019-01-25T12:13:00.343Z,33.23
2019-01-25T12:15:28.548Z,34.05
2019-01-25T12:17:56.767Z,31.55
2019-01-25T12:20:29.802Z,34.03
2019-01-25T12:22:58.083Z,31.48
2019-01-25T12:25:26.341Z,33.85
2019-01-25T12:27:54.596Z,33.90
2019-01-25T12:30:30.952Z,31.55
2019-01-25T12:32:59.184Z,31.17
2019-01-25T12:35:29.930Z,31.70
2019-01-25T12:37:58.133Z,30.92
2019-01-25T12:40:26.339Z,32.70
2019-01-25T12:42:54.538Z,32.03
2019-01-25T12:45:30.008Z,32.25
2019-01-25T12:47:58.235Z,31.87
2019-01-25T12:50:38.556Z,31.00
2019-01-25T12:53:08.700Z,31.52
2019-01-25T12:55:36.913Z,29.12
2019-01-25T12:58:05.447Z,31.68
2019-01-25T13:00:33.923Z,32.33
2019-01-25T13:03:02.119Z,31.42
2019-01-25T13:05:30.339Z,30.20
2019-01-25T13:07:58.532Z,29.77
2019-01-25T13:10:27.785Z,30.85
2019-01-25T13:12:55.995Z,30.72
2019-01-25T13:15:24.206Z,30.23
2019-01-25T13:17:52.395Z,31.07
2019-01-25T13:20:29.088Z,31.45
2019-01-25T13:22:57.282Z,30.97
2019-01-25T13:25:25.487Z,30.30
2019-01-25T13:27:53.775Z,31.17
2019-01-25T13:30:29.917Z,31.80
2019-01-25T13:32:58.183Z,32.30
2019-01-25T13:35:27.596Z,29.80
2019-01-25T13:37:55.867Z,31.48
2019-01-25T13:40:26.468Z,31.68
2019-01-25T13:42:54.747Z,29.42
2019-01-25T13:45:23.436Z,29.40
2019-01-25T13:47:51.719Z,30.35
2019-01-25T13:50:22.312Z,31.85
2019-01-25T13:55:18.027Z,28.47
2019-01-25T13:57:46.233Z,31.25
2019-01-25T14:00:23.496Z,32.05
2019-01-25T14:02:51.697Z,30.68
2019-01-25T14:05:19.920Z,31.05
2019-01-25T14:07:48.113Z,29.00
2019-01-25T14:10:24.281Z,32.03
2019-01-25T14:12:52.475Z,27.40
2019-01-25T14:15:20.685Z,30.37
2019-01-25T14:17:48.894Z,28.60
2019-01-25T14:20:23.439Z,29.25
2019-01-25T14:22:51.971Z,28.38
2019-01-25T14:25:20.237Z,28.80
2019-01-25T14:27:48.453Z,29.52
2019-01-25T14:30:22.643Z,29.98
2019-01-25T14:32:50.847Z,28.35
2019-01-25T14:35:19.047Z,27.10
2019-01-25T14:37:47.393Z,28.45
2019-01-25T14:40:15.588Z,30.20
2019-01-25T14:42:43.804Z,28.00
2019-01-25T14:45:14.899Z,26.45
2019-01-25T14:47:43.111Z,28.67
2019-01-25T14:50:14.153Z,28.10
2019-01-25T14:52:42.360Z,28.60
2019-01-25T14:55:10.569Z,28.77
2019-01-25T14:57:39.051Z,31.27
2019-01-25T15:00:08.224Z,32.70
2019-01-25T15:02:36.436Z,32.63
2019-01-25T15:05:10.466Z,31.17
2019-01-25T15:07:38.672Z,30.32
2019-01-25T15:10:12.691Z,32.98
2019-01-25T15:12:40.910Z,32.28
2019-01-25T15:15:11.552Z,32.90
2019-01-25T15:17:39.776Z,32.23
2019-01-25T15:20:11.089Z,32.15
2019-01-25T15:22:39.301Z,33.05
2019-01-25T15:25:07.503Z,32.50
2019-01-25T15:27:35.732Z,32.88
2019-01-25T15:30:09.504Z,32.98
2019-01-25T15:32:37.720Z,30.48
2019-01-25T15:35:08.738Z,31.55
2019-01-25T15:37:37.229Z,28.95
2019-01-25T15:40:08.738Z,29.05
2019-01-25T15:42:36.945Z,31.55
2019-01-25T15:45:14.051Z,28.27
2019-01-25T15:47:42.263Z,29.72
2019-01-25T15:50:16.400Z,30.17
2019-01-25T15:52:44.640Z,27.05
2019-01-25T15:55:12.850Z,31.62
2019-01-25T15:57:41.068Z,28.42
2019-01-25T16:01:16.087Z,29.90
2019-01-25T16:03:44.308Z,29.77
2019-01-25T16:06:12.510Z,30.68
2019-01-25T16:08:40.723Z,29.70
2019-01-25T16:11:08.915Z,29.85
2019-01-25T16:13:37.139Z,28.60
2019-01-25T16:16:05.347Z,29.82
2019-01-25T16:18:33.628Z,29.82
2019-01-25T16:21:02.100Z,30.80
2019-01-25T16:23:31.584Z,31.10
2019-01-25T16:26:00.409Z,29.35
2019-01-25T16:28:28.687Z,29.20
2019-01-25T16:30:56.903Z,29.30
2019-01-25T16:33:25.112Z,28.90
2019-01-25T16:35:53.314Z,29.45
2019-01-25T16:38:21.523Z,28.83
2019-01-25T16:40:49.736Z,28.15
2019-01-25T16:43:17.936Z,27.95
2019-01-25T16:45:46.140Z,30.60
2019-01-25T16:48:14.632Z,29.07
2019-01-25T16:50:42.841Z,28.52
2019-01-25T16:53:11.109Z,28.85
2019-01-25T16:55:39.311Z,27.65
2019-01-25T16:58:07.506Z,28.05
2019-01-25T17:00:38.287Z,28.25
2019-01-25T17:03:06.555Z,29.98
2019-01-25T17:05:34.923Z,31.50
2019-01-25T17:08:04.159Z,28.27
2019-01-25T17:10:32.369Z,27.75
2019-01-25T17:13:00.563Z,27.30
2019-01-25T17:15:28.780Z,29.30
2019-01-25T17:17:56.968Z,28.27
2019-01-25T17:20:27.011Z,26.82
2019-01-25T17:22:55.219Z,29.25
2019-01-25T17:25:23.438Z,30.27
2019-01-25T17:27:51.634Z,28.20
2019-01-25T17:30:25.763Z,28.20
2019-01-25T17:32:55.300Z,29.70
2019-01-25T17:35:23.508Z,27.53
2019-01-25T17:37:51.982Z,27.93
2019-01-25T17:40:23.084Z,28.67
2019-01-25T17:42:51.280Z,29.05
2019-01-25T17:45:19.489Z,28.98
2019-01-25T17:47:47.684Z,28.83
2019-01-25T17:50:16.274Z,28.55
2019-01-25T17:52:44.459Z,27.85
2019-01-25T17:55:17.204Z,27.73
2019-01-25T17:57:45.403Z,28.23
2019-01-25T18:00:20.692Z,27.50
2019-01-25T18:02:48.888Z,27.27
2019-01-25T18:05:17.083Z,27.52
2019-01-25T18:07:45.296Z,28.75
2019-01-25T18:10:18.849Z,26.62
2019-01-25T18:12:47.049Z,28.42
2019-01-25T18:15:16.591Z,27.10
2019-01-25T18:17:44.818Z,27.43
2019-01-25T18:20:17.768Z,28.27
2019-01-25T18:22:45.977Z,27.00
2019-01-25T18:25:44.672Z,29.92
2019-01-25T18:28:37.100Z,27.05
2019-01-25T18:31:08.567Z,28.10
2019-01-25T18:33:36.774Z,27.67
2019-01-25T18:36:04.981Z,28.57
2019-01-25T18:38:33.182Z,27.07
2019-01-25T18:41:01.391Z,28.55
2019-01-25T18:43:29.592Z,26.35
2019-01-25T18:45:57.815Z,27.30
2019-01-25T18:48:26.579Z,26.93
2019-01-25T18:50:54.776Z,27.62
2019-01-25T18:53:23.248Z,26.30
2019-01-25T18:55:51.443Z,26.05
2019-01-25T18:58:19.664Z,26.77
2019-01-25T19:00:47.859Z,26.90
2019-01-25T19:03:16.359Z,27.95
2019-01-25T19:05:44.551Z,28.00
2019-01-25T19:08:12.779Z,28.20
2019-01-25T19:10:40.963Z,27.07
2019-01-25T19:13:09.176Z,28.32
2019-01-25T19:15:37.370Z,26.23
2019-01-25T19:18:05.708Z,25.48
2019-01-25T19:20:33.905Z,25.35
2019-01-25T19:23:02.112Z,25.95
2019-01-25T19:25:30.310Z,25.80
2019-01-25T19:27:58.521Z,26.50
2019-01-25T19:30:38.338Z,26.00
2019-01-25T19:33:06.551Z,24.80
2019-01-25T19:35:34.742Z,23.35
2019-01-25T19:38:02.965Z,24.63
2019-01-25T19:40:35.557Z,26.10
2019-01-25T19:43:04.907Z,24.92
2019-01-25T19:45:33.109Z,25.52
2019-01-25T19:48:01.321Z,24.52
2019-01-25T19:50:29.530Z,24.95
2019-01-25T19:52:57.720Z,25.62
2019-01-25T19:55:31.276Z,25.75
2019-01-25T19:58:01.215Z,23.83
2019-01-25T20:00:38.247Z,23.47
2019-01-25T20:03:07.019Z,26.62
2019-01-25T20:05:35.211Z,25.32
2019-01-25T20:08:03.419Z,23.73
2019-01-25T20:10:31.640Z,24.15
2019-01-25T20:12:59.831Z,25.55
2019-01-25T20:15:28.324Z,26.57
2019-01-25T20:17:56.852Z,21.80
2019-01-25T20:20:37.259Z,23.67
2019-01-25T20:23:05.999Z,24.98
2019-01-25T20:25:34.597Z,22.27
2019-01-25T20:28:03.246Z,25.37
2019-01-25T20:30:33.092Z,23.60
2019-01-25T20:33:02.799Z,21.90
2019-01-25T20:35:33.259Z,23.70
2019-01-25T20:40:28.976Z,23.65
2019-01-25T20:42:57.184Z,26.27
2019-01-25T20:45:31.776Z,24.50
2019-01-25T20:47:59.988Z,25.95
2019-01-25T20:50:30.047Z,25.90
2019-01-25T20:52:58.355Z,23.75
2019-01-25T20:55:26.563Z,23.00
2019-01-25T20:57:55.835Z,25.45
2019-01-25T21:00:32.759Z,23.40
2019-01-25T21:03:01.056Z,21.40
2019-01-25T21:05:29.273Z,23.77
2019-01-25T21:07:57.463Z,22.13
2019-01-25T21:10:26.037Z,23.80
2019-01-25T21:12:54.315Z,22.40
2019-01-25T21:15:25.103Z,24.80
2019-01-25T21:17:53.460Z,22.62
2019-01-25T21:20:36.518Z,24.02
2019-01-25T21:23:06.361Z,24.75
2019-01-25T21:25:34.545Z,25.35
2019-01-25T21:28:02.804Z,23.75
2019-01-25T21:30:33.141Z,22.30
2019-01-25T21:33:01.380Z,24.57
2019-01-25T21:35:29.577Z,23.92
2019-01-25T21:37:57.815Z,23.77
2019-01-25T21:40:28.161Z,22.55
2019-01-25T21:42:58.164Z,23.00
2019-01-25T21:45:28.981Z,23.77
2019-01-25T21:47:57.365Z,23.38
2019-01-25T21:50:34.453Z,21.40
2019-01-25T21:53:02.672Z,21.95
2019-01-25T21:55:30.868Z,19.30
2019-01-25T21:58:05.278Z,20.90
2019-01-25T22:00:31.193Z,19.67
2019-01-25T22:02:59.405Z,18.98
2019-01-25T22:05:27.590Z,20.37
2019-01-25T22:07:55.808Z,19.30
2019-01-25T22:10:32.755Z,18.60
2019-01-25T22:13:00.955Z,18.40
2019-01-25T22:15:29.161Z,19.12
2019-01-25T22:17:57.935Z,18.92
2019-01-25T22:20:27.781Z,18.32
2019-01-25T22:22:55.970Z,18.65
2019-01-25T22:25:24.315Z,18.05
2019-01-25T22:27:53.645Z,18.17
2019-01-25T22:30:24.586Z,17.27
2019-01-25T22:32:52.784Z,18.90
2019-01-25T22:35:20.985Z,18.35
2019-01-25T22:37:49.186Z,17.23
2019-01-25T22:40:19.538Z,16.42
2019-01-25T22:42:47.727Z,17.10
2019-01-25T22:45:18.475Z,16.05
2019-01-25T22:47:49.786Z,16.02
2019-01-25T22:50:23.713Z,17.82
2019-01-25T22:52:51.904Z,16.93
2019-01-25T22:55:21.375Z,15.68
2019-01-25T22:57:49.720Z,17.12
2019-01-25T23:00:54.491Z,14.63
2019-01-25T23:03:35.487Z,18.77
2019-01-25T23:06:26.797Z,16.17
2019-01-25T23:08:57.053Z,17.50
2019-01-25T23:11:25.245Z,16.37
2019-01-25T23:13:53.463Z,17.73
2019-01-25T23:16:21.663Z,17.20
2019-01-25T23:18:50.122Z,15.70
2019-01-25T23:21:18.323Z,17.27
2019-01-25T23:23:46.519Z,17.00
2019-01-25T23:26:14.758Z,18.02
2019-01-25T23:28:42.933Z,18.25
2019-01-25T23:31:11.139Z,17.70
2019-01-25T23:33:39.339Z,17.73
2019-01-25T23:36:07.562Z,17.55
2019-01-25T23:38:35.759Z,16.30
2019-01-25T23:41:04.043Z,17.02
2019-01-25T23:43:32.286Z,16.20
2019-01-25T23:46:00.481Z,17.00
2019-01-25T23:48:28.675Z,17.95
2019-01-25T23:50:57.650Z,16.55
2019-01-25T23:53:25.865Z,17.82
2019-01-25T23:55:54.093Z,17.98
2019-01-25T23:58:22.357Z,15.68
